Time;durP1;ratioP1;P1;durP2;ratioP2;P2;SDS_P1;SDS_P2;PMS_P1;PMS_P2;Temp;Humidity;BMP_temperature;BMP_pressure;BME280_temperature;BME280_humidity;BME280_pressure;Samples;Min_cycle;Max_cycle;Signal;HPM_P1;HPM_P2
2022/12/16 00:00:19;;;;;;;21.73;13.55;;;;;;;;;;5059942;28;20055;-82
2022/12/16 00:02:45;;;;;;;22.58;13.38;;;;;;;;;;5054872;28;20061;-81
2022/12/16 00:05:10;;;;;;;23.02;13.85;;;;;;;;;;5055495;28;20033;-81
2022/12/16 00:07:36;;;;;;;20.83;12.50;;;;;;;;;;5054921;28;20127;-82
2022/12/16 00:10:01;;;;;;;22.23;14.40;;;;;;;;;;5067359;28;20032;-82
2022/12/16 00:12:27;;;;;;;21.95;14.23;;;;;;;;;;5065046;28;20033;-82
2022/12/16 00:14:53;;;;;;;20.90;12.40;;;;;;;;;;5038404;28;20074;-82
2022/12/16 00:17:19;;;;;;;24.33;14.23;;;;;;;;;;5064720;28;20116;-82
2022/12/16 00:19:44;;;;;;;22.63;13.60;;;;;;;;;;5066938;28;20116;-82
2022/12/16 00:22:10;;;;;;;22.02;13.45;;;;;;;;;;5041105;28;20040;-82
2022/12/16 00:24:36;;;;;;;23.60;14.05;;;;;;;;;;5043428;28;20048;-82
2022/12/16 00:27:01;;;;;;;20.95;13.95;;;;;;;;;;5048201;28;20111;-82
2022/12/16 00:29:27;;;;;;;21.50;13.40;;;;;;;;;;5037889;28;20460;-83
2022/12/16 00:31:52;;;;;;;21.73;12.88;;;;;;;;;;5025992;28;20045;-82
2022/12/16 00:34:18;;;;;;;23.05;14.70;;;;;;;;;;5036696;28;20403;-82
2022/12/16 00:36:44;;;;;;;23.13;15.02;;;;;;;;;;5054514;28;20029;-81
2022/12/16 00:39:09;;;;;;;22.48;14.73;;;;;;;;;;5036552;28;20029;-83
2022/12/16 00:41:35;;;;;;;21.05;13.20;;;;;;;;;;5044007;28;20036;-82
2022/12/16 00:44:01;;;;;;;23.48;14.45;;;;;;;;;;5032545;28;20037;-83
2022/12/16 00:46:26;;;;;;;22.65;13.63;;;;;;;;;;5053164;28;20602;-82
2022/12/16 00:48:52;;;;;;;23.50;14.65;;;;;;;;;;5056665;28;20105;-82
2022/12/16 00:51:17;;;;;;;22.25;13.63;;;;;;;;;;5035484;28;20037;-83
2022/12/16 00:53:43;;;;;;;21.58;12.85;;;;;;;;;;5036549;28;20044;-82
2022/12/16 00:56:09;;;;;;;24.48;14.52;;;;;;;;;;5037241;28;20055;-83
2022/12/16 00:58:34;;;;;;;;;;;;;;;;;;5037368;28;20021;-82
2022/12/16 01:01:00;;;;;;;24.65;14.40;;;;;;;;;;5052990;28;19919;-82
2022/12/16 01:03:25;;;;;;;26.35;14.77;;;;;;;;;;5025135;28;20846;-82
2022/12/16 01:05:51;;;;;;;28.02;16.15;;;;;;;;;;5040310;28;20087;-82
2022/12/16 01:08:16;;;;;;;23.90;15.65;;;;;;;;;;5033565;28;20033;-82
2022/12/16 01:10:42;;;;;;;26.35;15.18;;;;;;;;;;5003117;28;20067;-82
2022/12/16 01:13:07;;;;;;;24.55;15.27;;;;;;;;;;5053493;28;20025;-82
2022/12/16 01:15:33;;;;;;;23.88;14.05;;;;;;;;;;5036071;28;20052;-82
2022/12/16 01:17:58;;;;;;;26.05;15.68;;;;;;;;;;5037262;28;20029;-82
2022/12/16 01:20:24;;;;;;;26.63;16.08;;;;;;;;;;5020118;28;20123;-84
2022/12/16 01:22:49;;;;;;;23.95;14.98;;;;;;;;;;5060492;28;20043;-83
2022/12/16 01:25:16;;;;;;;25.23;14.25;;;;;;;;;;5039235;28;20044;-83
2022/12/16 01:27:42;;;;;;;26.35;15.18;;;;;;;;;;5025015;28;20349;-84
2022/12/16 01:30:08;;;;;;;21.80;14.90;;;;;;;;;;5053750;28;20024;-82
2022/12/16 01:32:33;;;;;;;22.92;14.57;;;;;;;;;;5037092;28;20116;-81
2022/12/16 01:34:59;;;;;;;23.50;15.30;;;;;;;;;;5035081;28;20159;-81
2022/12/16 01:37:24;;;;;;;27.30;16.15;;;;;;;;;;5042305;28;20017;-82
2022/12/16 01:39:50;;;;;;;27.30;15.63;;;;;;;;;;5035652;28;20033;-81
2022/12/16 01:42:17;;;;;;;26.00;15.70;;;;;;;;;;5056240;28;20047;-84
2022/12/16 01:44:43;;;;;;;22.55;14.13;;;;;;;;;;5046862;28;20380;-81
2022/12/16 01:47:11;;;;;;;26.00;15.82;;;;;;;;;;5063508;28;20137;-82
2022/12/16 01:49:40;;;;;;;24.17;14.70;;;;;;;;;;5029480;28;20049;-82
2022/12/16 01:52:08;;;;;;;26.58;16.88;;;;;;;;;;5042710;28;20039;-82
2022/12/16 01:54:35;;;;;;;23.95;15.35;;;;;;;;;;5048250;28;20090;-81
2022/12/16 01:57:01;;;;;;;29.40;16.90;;;;;;;;;;5046364;28;20040;-82
2022/12/16 01:59:27;;;;;;;27.27;16.85;;;;;;;;;;5040705;28;20433;-83
2022/12/16 02:01:53;;;;;;;29.45;16.48;;;;;;;;;;5035843;28;20061;-83
2022/12/16 02:04:19;;;;;;;;;;;;;;;;;;5036399;28;20029;-83
2022/12/16 02:06:44;;;;;;;24.77;14.73;;;;;;;;;;5035561;28;19959;-83
2022/12/16 02:09:12;;;;;;;27.45;16.55;;;;;;;;;;5053890;28;20396;-82
2022/12/16 02:11:54;;;;;;;27.10;16.67;;;;;;;;;;5055407;28;20488;-83
2022/12/16 02:14:23;;;;;;;30.25;16.75;;;;;;;;;;5034743;28;20497;-82
2022/12/16 02:16:53;;;;;;;27.42;15.82;;;;;;;;;;5037922;28;20064;-83
2022/12/16 02:19:38;;;;;;;27.95;16.27;;;;;;;;;;5032255;28;20404;-83
2022/12/16 02:22:22;;;;;;;26.55;17.17;;;;;;;;;;5041977;28;20064;-81
2022/12/16 02:25:02;;;;;;;27.75;16.83;;;;;;;;;;5050235;28;20025;-81
2022/12/16 02:27:46;;;;;;;30.98;16.52;;;;;;;;;;5046337;28;20025;-81
2022/12/16 02:30:24;;;;;;;26.55;16.58;;;;;;;;;;5056876;28;20055;-82
2022/12/16 02:32:52;;;;;;;29.05;18.13;;;;;;;;;;5054415;28;20743;-82
2022/12/16 02:35:31;;;;;;;28.77;17.48;;;;;;;;;;5051930;28;20476;-82
2022/12/16 02:38:11;;;;;;;30.23;17.27;;;;;;;;;;5048080;28;20060;-82
2022/12/16 02:40:40;;;;;;;31.52;18.10;;;;;;;;;;5042850;28;20043;-83
2022/12/16 02:43:08;;;;;;;26.80;15.73;;;;;;;;;;5034446;28;20017;-83
2022/12/16 02:45:33;;;;;;;28.08;17.15;;;;;;;;;;5027221;28;20040;-82
2022/12/16 02:47:59;;;;;;;28.98;18.13;;;;;;;;;;5048771;28;20487;-82
2022/12/16 02:50:41;;;;;;;28.17;17.15;;;;;;;;;;5044397;28;20044;-83
2022/12/16 02:53:07;;;;;;;31.42;18.75;;;;;;;;;;5020842;28;20045;-82
2022/12/16 02:55:52;;;;;;;30.17;18.05;;;;;;;;;;5065309;28;20559;-81
2022/12/16 02:58:20;;;;;;;30.88;16.67;;;;;;;;;;5061261;28;20067;-82
2022/12/16 03:01:06;;;;;;;32.33;17.52;;;;;;;;;;5034014;28;20480;-82
2022/12/16 03:03:36;;;;;;;31.52;18.30;;;;;;;;;;5034098;28;20039;-82
2022/12/16 03:06:01;;;;;;;28.67;17.60;;;;;;;;;;5041565;28;20043;-81
2022/12/16 03:08:30;;;;;;;32.05;18.75;;;;;;;;;;5034438;28;20128;-81
2022/12/16 03:10:56;;;;;;;30.80;17.38;;;;;;;;;;5056888;28;20480;-82
2022/12/16 03:13:22;;;;;;;32.33;18.98;;;;;;;;;;5025408;28;20046;-82
2022/12/16 03:15:48;;;;;;;30.88;18.38;;;;;;;;;;5055525;28;20060;-82
2022/12/16 03:18:14;;;;;;;32.58;18.40;;;;;;;;;;5058946;28;20041;-82
2022/12/16 03:20:44;;;;;;;29.48;18.30;;;;;;;;;;5047460;28;20135;-83
2022/12/16 03:23:11;;;;;;;30.95;18.45;;;;;;;;;;5042013;28;20039;-82
2022/12/16 03:25:38;;;;;;;31.95;18.15;;;;;;;;;;5032295;28;20122;-82
2022/12/16 03:28:28;;;;;;;33.85;20.05;;;;;;;;;;5045088;28;20041;-81
2022/12/16 03:30:57;;;;;;;32.67;18.45;;;;;;;;;;5012866;28;20102;-81
2022/12/16 03:33:27;;;;;;;32.03;18.60;;;;;;;;;;5047540;28;20027;-83
2022/12/16 03:35:54;;;;;;;33.90;19.02;;;;;;;;;;5049701;28;20075;-80
2022/12/16 03:38:20;;;;;;;31.63;19.38;;;;;;;;;;5032364;28;20020;-83
2022/12/16 03:40:46;;;;;;;33.80;18.42;;;;;;;;;;5023107;28;20143;-82
2022/12/16 03:43:13;;;;;;;32.03;17.90;;;;;;;;;;5023683;28;20561;-82
2022/12/16 03:45:39;;;;;;;28.83;17.20;;;;;;;;;;5031422;28;20078;-82
2022/12/16 03:48:05;;;;;;;;;;;;;;;;;;5017920;28;20029;-81
2022/12/16 03:50:31;;;;;;;29.05;17.33;;;;;;;;;;5061683;28;19931;-82
2022/12/16 03:52:56;;;;;;;25.23;16.77;;;;;;;;;;5017437;28;20024;-82
2022/12/16 03:55:22;;;;;;;25.38;14.90;;;;;;;;;;5034484;28;20037;-82
2022/12/16 03:57:47;;;;;;;26.02;16.27;;;;;;;;;;5017842;28;20044;-82
2022/12/16 04:00:14;;;;;;;27.73;15.50;;;;;;;;;;5036726;28;20373;-81
2022/12/16 04:02:39;;;;;;;;;;;;;;;;;;5039131;28;20074;-81
2022/12/16 04:05:05;;;;;;;23.23;14.05;;;;;;;;;;5021387;28;19905;-81
2022/12/16 04:07:31;;;;;;;23.63;14.07;;;;;;;;;;5021290;28;20124;-81
2022/12/16 04:09:56;;;;;;;;;;;;;;;;;;5024061;28;20120;-82
2022/12/16 04:26:13;;;;;;;25.45;14.20;;;;;;;;;;5042090;28;20416;-81
2022/12/16 04:28:38;;;;;;;22.08;13.75;;;;;;;;;;5054904;28;20037;-81
2022/12/16 04:31:04;;;;;;;23.58;14.68;;;;;;;;;;5044494;28;20037;-82
